<?xml version="1.0" encoding="UTF-8" standalone="no" ?>
<gpx xmlns="http://www.topografix.com/GPX/1/1" xmlns:xsi="http://www.w3.org/2001/XMLSchema-instance" xsi:schemaLocation="http://www.topografix.com/GPX/1/1 http://www.topografix.com/GPX/1/1/gpx.xsd" version="1.1" creator="VisuGPX - https://www.visugpx.com">
  <metadata>
    <name>Edirne-Zagreb</name>
  </metadata>
  <trk>
    <name><![CDATA[Tour d'Europe: étape 685]]></name>
    <extensions>
      <line xmlns="http://www.topografix.com/GPX/gpx_style/0/2">
        <color>008888</color>
        <width>4</width>
      </line>
    </extensions>
    <trkseg>
      <trkpt lat="41.32614" lon="19.80579">
        <ele>147.541142</ele>
        <time>2022-05-14T08:21:05.097Z</time>
      </trkpt>
      <trkpt lat="41.32663" lon="19.80619">
        <ele>148.071248</ele>
        <time>2022-05-14T08:21:45.086Z</time>
      </trkpt>
      <trkpt lat="41.3274" lon="19.80879">
        <ele>155.788562</ele>
        <time>2022-05-14T08:22:47.075Z</time>
      </trkpt>
      <trkpt lat="41.32839" lon="19.81149">
        <ele>156.579294</ele>
        <time>2022-05-14T08:23:59.068Z</time>
      </trkpt>
      <trkpt lat="41.33032" lon="19.81206">
        <ele>156.135955</ele>
        <time>2022-05-14T08:25:10.068Z</time>
      </trkpt>
      <trkpt lat="41.33123" lon="19.80958">
        <ele>156.303049</ele>
        <time>2022-05-14T08:26:01.102Z</time>
      </trkpt>
      <trkpt lat="41.3321" lon="19.80696">
        <ele>152.614841</ele>
        <time>2022-05-14T08:26:48.124Z</time>
      </trkpt>
      <trkpt lat="41.3334" lon="19.80512">
        <ele>142.491226</ele>
        <time>2022-05-14T08:27:44.063Z</time>
      </trkpt>
      <trkpt lat="41.33529" lon="19.80537">
        <ele>145.940548</ele>
        <time>2022-05-14T08:29:13.073Z</time>
      </trkpt>
      <trkpt lat="41.33725" lon="19.80421">
        <ele>143.942457</ele>
        <time>2022-05-14T08:29:58.097Z</time>
      </trkpt>
      <trkpt lat="41.33934" lon="19.80277">
        <ele>140.419919</ele>
        <time>2022-05-14T08:31:00.059Z</time>
      </trkpt>
      <trkpt lat="41.34139" lon="19.80146">
        <ele>149.350598</ele>
        <time>2022-05-14T08:31:52.099Z</time>
      </trkpt>
      <trkpt lat="41.34237" lon="19.79922">
        <ele>152.983788</ele>
        <time>2022-05-14T08:32:48.158Z</time>
      </trkpt>
      <trkpt lat="41.34349" lon="19.79784">
        <ele>138.632586</ele>
        <time>2022-05-14T08:33:50.080Z</time>
      </trkpt>
      <trkpt lat="41.34495" lon="19.79706">
        <ele>133.427698</ele>
        <time>2022-05-14T08:35:18.084Z</time>
      </trkpt>
      <trkpt lat="41.34666" lon="19.79796">
        <ele>128.088604</ele>
        <time>2022-05-14T08:36:22.106Z</time>
      </trkpt>
      <trkpt lat="41.34853" lon="19.79719">
        <ele>124.827186</ele>
        <time>2022-05-14T08:40:10.054Z</time>
      </trkpt>
      <trkpt lat="41.34987" lon="19.79595">
        <ele>123.535517</ele>
        <time>2022-05-14T08:41:55.039Z</time>
      </trkpt>
      <trkpt lat="41.35068" lon="19.79311">
        <ele>120.811636</ele>
        <time>2022-05-14T08:42:37.048Z</time>
      </trkpt>
      <trkpt lat="41.35134" lon="19.79051">
        <ele>125.1474</ele>
        <time>2022-05-14T08:43:28.064Z</time>
      </trkpt>
      <trkpt lat="41.35199" lon="19.78766">
        <ele>124.891496</ele>
        <time>2022-05-14T08:44:18.082Z</time>
      </trkpt>
      <trkpt lat="41.3518" lon="19.78483">
        <ele>120.477588</ele>
        <time>2022-05-14T08:45:00.052Z</time>
      </trkpt>
      <trkpt lat="41.35248" lon="19.78212">
        <ele>120.954836</ele>
        <time>2022-05-14T08:45:48.075Z</time>
      </trkpt>
      <trkpt lat="41.35309" lon="19.7794">
        <ele>117.010652</ele>
        <time>2022-05-14T08:46:33.066Z</time>
      </trkpt>
      <trkpt lat="41.35411" lon="19.77684">
        <ele>115.700159</ele>
        <time>2022-05-14T08:47:22.074Z</time>
      </trkpt>
      <trkpt lat="41.35559" lon="19.7746">
        <ele>118.378576</ele>
        <time>2022-05-14T08:49:22.074Z</time>
      </trkpt>
      <trkpt lat="41.35751" lon="19.77385">
        <ele>129.633131</ele>
        <time>2022-05-14T08:50:48.072Z</time>
      </trkpt>
      <trkpt lat="41.35928" lon="19.77259">
        <ele>135.829639</ele>
        <time>2022-05-14T08:52:06.066Z</time>
      </trkpt>
      <trkpt lat="41.36135" lon="19.77203">
        <ele>133.207352</ele>
        <time>2022-05-14T08:53:16.074Z</time>
      </trkpt>
      <trkpt lat="41.36383" lon="19.77159">
        <ele>122.099342</ele>
        <time>2022-05-14T08:54:03.093Z</time>
      </trkpt>
      <trkpt lat="41.36618" lon="19.77031">
        <ele>111.080281</ele>
        <time>2022-05-14T08:54:44.062Z</time>
      </trkpt>
      <trkpt lat="41.36804" lon="19.76933">
        <ele>104.018822</ele>
        <time>2022-05-14T08:55:29.071Z</time>
      </trkpt>
      <trkpt lat="41.37001" lon="19.76822">
        <ele>102.948293</ele>
        <time>2022-05-14T08:56:17.076Z</time>
      </trkpt>
      <trkpt lat="41.37203" lon="19.76705">
        <ele>101.475838</ele>
        <time>2022-05-14T08:57:14.085Z</time>
      </trkpt>
      <trkpt lat="41.37419" lon="19.76582">
        <ele>105.655431</ele>
        <time>2022-05-14T09:01:08.146Z</time>
      </trkpt>
      <trkpt lat="41.37636" lon="19.76459">
        <ele>108.596053</ele>
        <time>2022-05-14T09:02:04.102Z</time>
      </trkpt>
      <trkpt lat="41.37852" lon="19.76328">
        <ele>112.471561</ele>
        <time>2022-05-14T09:02:53.051Z</time>
      </trkpt>
      <trkpt lat="41.38051" lon="19.76222">
        <ele>109.465136</ele>
        <time>2022-05-14T09:03:38.067Z</time>
      </trkpt>
      <trkpt lat="41.38251" lon="19.76111">
        <ele>103.788407</ele>
        <time>2022-05-14T09:05:09.069Z</time>
      </trkpt>
      <trkpt lat="41.38442" lon="19.75994">
        <ele>105.875785</ele>
        <time>2022-05-14T09:06:10.062Z</time>
      </trkpt>
      <trkpt lat="41.38662" lon="19.75864">
        <ele>107.891321</ele>
        <time>2022-05-14T09:07:03.095Z</time>
      </trkpt>
      <trkpt lat="41.38858" lon="19.75763">
        <ele>97.951097</ele>
        <time>2022-05-14T09:07:49.078Z</time>
      </trkpt>
      <trkpt lat="41.39071" lon="19.75642">
        <ele>95.900043</ele>
        <time>2022-05-14T09:08:41.111Z</time>
      </trkpt>
      <trkpt lat="41.39256" lon="19.75538">
        <ele>91.047154</ele>
        <time>2022-05-14T09:09:24.085Z</time>
      </trkpt>
      <trkpt lat="41.39452" lon="19.75426">
        <ele>91.845689</ele>
        <time>2022-05-14T09:10:10.080Z</time>
      </trkpt>
      <trkpt lat="41.39641" lon="19.75319">
        <ele>89.372091</ele>
        <time>2022-05-14T09:10:52.084Z</time>
      </trkpt>
      <trkpt lat="41.39831" lon="19.7521">
        <ele>86.871699</ele>
        <time>2022-05-14T09:11:32.098Z</time>
      </trkpt>
      <trkpt lat="41.40029" lon="19.75096">
        <ele>86.366985</ele>
        <time>2022-05-14T09:12:14.055Z</time>
      </trkpt>
      <trkpt lat="41.40217" lon="19.74988">
        <ele>85.914975</ele>
        <time>2022-05-14T09:12:54.062Z</time>
      </trkpt>
      <trkpt lat="41.404" lon="19.74887">
        <ele>84.161586</ele>
        <time>2022-05-14T09:13:34.066Z</time>
      </trkpt>
      <trkpt lat="41.40583" lon="19.74759">
        <ele>84.195579</ele>
        <time>2022-05-14T09:14:14.104Z</time>
      </trkpt>
      <trkpt lat="41.40764" lon="19.74622">
        <ele>82.417202</ele>
        <time>2022-05-14T09:14:56.110Z</time>
      </trkpt>
      <trkpt lat="41.40934" lon="19.74496">
        <ele>81.058922</ele>
        <time>2022-05-14T09:15:36.099Z</time>
      </trkpt>
      <trkpt lat="41.41125" lon="19.74404">
        <ele>80.033633</ele>
        <time>2022-05-14T09:16:16.058Z</time>
      </trkpt>
      <trkpt lat="41.41315" lon="19.74335">
        <ele>80.820471</ele>
        <time>2022-05-14T09:16:56.087Z</time>
      </trkpt>
      <trkpt lat="41.41515" lon="19.74256">
        <ele>78.902421</ele>
        <time>2022-05-14T09:17:41.150Z</time>
      </trkpt>
      <trkpt lat="41.41709" lon="19.74179">
        <ele>77.774757</ele>
        <time>2022-05-14T09:18:23.076Z</time>
      </trkpt>
      <trkpt lat="41.41903" lon="19.74103">
        <ele>76.531012</ele>
        <time>2022-05-14T09:19:03.122Z</time>
      </trkpt>
      <trkpt lat="41.42103" lon="19.74024">
        <ele>75.502882</ele>
        <time>2022-05-14T09:19:46.065Z</time>
      </trkpt>
      <trkpt lat="41.42296" lon="19.73945">
        <ele>73.028165</ele>
        <time>2022-05-14T09:20:26.094Z</time>
      </trkpt>
      <trkpt lat="41.42484" lon="19.73869">
        <ele>72.407131</ele>
        <time>2022-05-14T09:21:06.078Z</time>
      </trkpt>
      <trkpt lat="41.42674" lon="19.73792">
        <ele>71.901913</ele>
        <time>2022-05-14T09:21:46.086Z</time>
      </trkpt>
      <trkpt lat="41.42874" lon="19.73713">
        <ele>73.869801</ele>
        <time>2022-05-14T09:22:28.070Z</time>
      </trkpt>
      <trkpt lat="41.43067" lon="19.73634">
        <ele>74.323433</ele>
        <time>2022-05-14T09:23:12.065Z</time>
      </trkpt>
      <trkpt lat="41.43296" lon="19.73543">
        <ele>73.223362</ele>
        <time>2022-05-14T09:24:05.089Z</time>
      </trkpt>
      <trkpt lat="41.43486" lon="19.73467">
        <ele>73.814968</ele>
        <time>2022-05-14T09:24:46.086Z</time>
      </trkpt>
      <trkpt lat="41.43679" lon="19.73391">
        <ele>75.364538</ele>
        <time>2022-05-14T09:25:28.081Z</time>
      </trkpt>
      <trkpt lat="41.43906" lon="19.73301">
        <ele>78.073936</ele>
        <time>2022-05-14T09:26:26.068Z</time>
      </trkpt>
      <trkpt lat="41.44131" lon="19.7321">
        <ele>78.823803</ele>
        <time>2022-05-14T09:27:21.082Z</time>
      </trkpt>
      <trkpt lat="41.44353" lon="19.7312">
        <ele>79.010229</ele>
        <time>2022-05-14T09:28:20.072Z</time>
      </trkpt>
      <trkpt lat="41.44582" lon="19.73028">
        <ele>78.058088</ele>
        <time>2022-05-14T09:29:18.054Z</time>
      </trkpt>
      <trkpt lat="41.44799" lon="19.72936">
        <ele>75.724581</ele>
        <time>2022-05-14T09:30:09.084Z</time>
      </trkpt>
      <trkpt lat="41.45016" lon="19.72849">
        <ele>74.69901</ele>
        <time>2022-05-14T09:30:59.121Z</time>
      </trkpt>
      <trkpt lat="41.45227" lon="19.72763">
        <ele>72.261177</ele>
        <time>2022-05-14T09:31:41.120Z</time>
      </trkpt>
      <trkpt lat="41.45426" lon="19.72682">
        <ele>69.382289</ele>
        <time>2022-05-14T09:32:21.124Z</time>
      </trkpt>
      <trkpt lat="41.45609" lon="19.72607">
        <ele>67.968516</ele>
        <time>2022-05-14T09:33:02.073Z</time>
      </trkpt>
      <trkpt lat="41.45803" lon="19.72531">
        <ele>68.851022</ele>
        <time>2022-05-14T09:33:45.083Z</time>
      </trkpt>
      <trkpt lat="41.45993" lon="19.72454">
        <ele>69.11523</ele>
        <time>2022-05-14T09:34:27.057Z</time>
      </trkpt>
      <trkpt lat="41.46182" lon="19.72382">
        <ele>68.415471</ele>
        <time>2022-05-14T09:35:07.082Z</time>
      </trkpt>
      <trkpt lat="41.46367" lon="19.72315">
        <ele>67.848401</ele>
        <time>2022-05-14T09:35:47.103Z</time>
      </trkpt>
      <trkpt lat="41.46564" lon="19.72243">
        <ele>66.249658</ele>
        <time>2022-05-14T09:36:31.062Z</time>
      </trkpt>
      <trkpt lat="41.46773" lon="19.72163">
        <ele>67.8537</ele>
        <time>2022-05-14T09:37:19.126Z</time>
      </trkpt>
      <trkpt lat="41.46975" lon="19.72084">
        <ele>65.107377</ele>
        <time>2022-05-14T09:37:59.063Z</time>
      </trkpt>
      <trkpt lat="41.47164" lon="19.71975">
        <ele>64.567129</ele>
        <time>2022-05-14T09:38:40.103Z</time>
      </trkpt>
      <trkpt lat="41.47358" lon="19.71878">
        <ele>66.571076</ele>
        <time>2022-05-14T09:39:22.066Z</time>
      </trkpt>
      <trkpt lat="41.47556" lon="19.71825">
        <ele>64.422691</ele>
        <time>2022-05-14T09:40:02.063Z</time>
      </trkpt>
      <trkpt lat="41.47747" lon="19.71771">
        <ele>64.214234</ele>
        <time>2022-05-14T09:40:43.077Z</time>
      </trkpt>
      <trkpt lat="41.47908" lon="19.71821">
        <ele>64.049584</ele>
        <time>2022-05-14T09:41:28.119Z</time>
      </trkpt>
      <trkpt lat="41.47956" lon="19.72091">
        <ele>66.298831</ele>
        <time>2022-05-14T09:42:21.060Z</time>
      </trkpt>
      <trkpt lat="41.48138" lon="19.72231">
        <ele>69.634571</ele>
        <time>2022-05-14T09:43:19.112Z</time>
      </trkpt>
      <trkpt lat="41.48321" lon="19.72368">
        <ele>66.642985</ele>
        <time>2022-05-14T09:44:21.063Z</time>
      </trkpt>
      <trkpt lat="41.48518" lon="19.7251">
        <ele>68.174657</ele>
        <time>2022-05-14T09:45:21.069Z</time>
      </trkpt>
      <trkpt lat="41.48746" lon="19.72599">
        <ele>65.881857</ele>
        <time>2022-05-14T09:46:21.078Z</time>
      </trkpt>
      <trkpt lat="41.48946" lon="19.72456">
        <ele>64.495364</ele>
        <time>2022-05-14T09:47:12.071Z</time>
      </trkpt>
      <trkpt lat="41.49095" lon="19.72253">
        <ele>62.742271</ele>
        <time>2022-05-14T09:48:01.056Z</time>
      </trkpt>
      <trkpt lat="41.49295" lon="19.72201">
        <ele>60.82638</ele>
        <time>2022-05-14T09:48:43.084Z</time>
      </trkpt>
      <trkpt lat="41.49488" lon="19.72187">
        <ele>59.879444</ele>
        <time>2022-05-14T09:49:24.083Z</time>
      </trkpt>
      <trkpt lat="41.49671" lon="19.72082">
        <ele>57.739655</ele>
        <time>2022-05-14T09:50:06.081Z</time>
      </trkpt>
      <trkpt lat="41.49838" lon="19.71912">
        <ele>57.181862</ele>
        <time>2022-05-14T09:50:53.081Z</time>
      </trkpt>
      <trkpt lat="41.5007" lon="19.719">
        <ele>55.935604</ele>
        <time>2022-05-14T09:51:52.086Z</time>
      </trkpt>
      <trkpt lat="41.50275" lon="19.7205">
        <ele>56.893098</ele>
        <time>2022-05-14T09:52:51.105Z</time>
      </trkpt>
      <trkpt lat="41.50458" lon="19.72227">
        <ele>59.559898</ele>
        <time>2022-05-14T09:53:51.066Z</time>
      </trkpt>
      <trkpt lat="41.50616" lon="19.72429">
        <ele>60.299762</ele>
        <time>2022-05-14T09:54:51.076Z</time>
      </trkpt>
      <trkpt lat="41.50754" lon="19.72675">
        <ele>61.085196</ele>
        <time>2022-05-14T09:55:54.071Z</time>
      </trkpt>
      <trkpt lat="41.50885" lon="19.72872">
        <ele>62.509966</ele>
        <time>2022-05-14T09:56:57.079Z</time>
      </trkpt>
      <trkpt lat="41.51126" lon="19.72903">
        <ele>53.181663</ele>
        <time>2022-05-14T09:57:40.064Z</time>
      </trkpt>
      <trkpt lat="41.51394" lon="19.72929">
        <ele>46.198093</ele>
        <time>2022-05-14T09:58:22.072Z</time>
      </trkpt>
      <trkpt lat="41.5163" lon="19.72947">
        <ele>49.256614</ele>
        <time>2022-05-14T09:59:25.073Z</time>
      </trkpt>
      <trkpt lat="41.5181" lon="19.72992">
        <ele>57.375411</ele>
        <time>2022-05-14T10:25:46.057Z</time>
      </trkpt>
      <trkpt lat="41.51977" lon="19.72842">
        <ele>63.211064</ele>
        <time>2022-05-14T10:33:51.076Z</time>
      </trkpt>
      <trkpt lat="41.52152" lon="19.72653">
        <ele>59.331</ele>
        <time>2022-05-14T10:34:54.082Z</time>
      </trkpt>
      <trkpt lat="41.52328" lon="19.72496">
        <ele>54.189902</ele>
        <time>2022-05-14T10:35:37.072Z</time>
      </trkpt>
      <trkpt lat="41.52502" lon="19.72341">
        <ele>54.384699</ele>
        <time>2022-05-14T10:36:21.064Z</time>
      </trkpt>
      <trkpt lat="41.52687" lon="19.72249">
        <ele>54.535975</ele>
        <time>2022-05-14T10:37:02.066Z</time>
      </trkpt>
      <trkpt lat="41.52921" lon="19.72167">
        <ele>56.780598</ele>
        <time>2022-05-14T10:38:05.073Z</time>
      </trkpt>
      <trkpt lat="41.53083" lon="19.7196">
        <ele>60.773209</ele>
        <time>2022-05-14T10:38:59.101Z</time>
      </trkpt>
      <trkpt lat="41.5322" lon="19.71766">
        <ele>60.354505</ele>
        <time>2022-05-14T10:39:40.100Z</time>
      </trkpt>
      <trkpt lat="41.53428" lon="19.71628">
        <ele>50.484513</ele>
        <time>2022-05-14T10:40:27.074Z</time>
      </trkpt>
      <trkpt lat="41.5359" lon="19.71428">
        <ele>49.981696</ele>
        <time>2022-05-14T10:41:16.066Z</time>
      </trkpt>
      <trkpt lat="41.53787" lon="19.7125">
        <ele>51.143432</ele>
        <time>2022-05-14T10:42:16.101Z</time>
      </trkpt>
      <trkpt lat="41.53947" lon="19.71074">
        <ele>54.468045</ele>
        <time>2022-05-14T10:43:17.083Z</time>
      </trkpt>
      <trkpt lat="41.54054" lon="19.70825">
        <ele>53.500579</ele>
        <time>2022-05-14T10:43:59.082Z</time>
      </trkpt>
      <trkpt lat="41.54166" lon="19.70565">
        <ele>54.765183</ele>
        <time>2022-05-14T10:44:47.078Z</time>
      </trkpt>
      <trkpt lat="41.54266" lon="19.70335">
        <ele>62.347613</ele>
        <time>2022-05-14T10:46:30.063Z</time>
      </trkpt>
      <trkpt lat="41.54434" lon="19.70224">
        <ele>61.894508</ele>
        <time>2022-05-14T10:47:42.082Z</time>
      </trkpt>
      <trkpt lat="41.54666" lon="19.70019">
        <ele>52.40639</ele>
        <time>2022-05-14T10:48:24.084Z</time>
      </trkpt>
      <trkpt lat="41.54565" lon="19.6974">
        <ele>50.461553</ele>
        <time>2022-05-14T10:49:12.112Z</time>
      </trkpt>
      <trkpt lat="41.5459" lon="19.69501">
        <ele>52.463238</ele>
        <time>2022-05-14T10:49:54.080Z</time>
      </trkpt>
      <trkpt lat="41.54742" lon="19.69295">
        <ele>53.676064</ele>
        <time>2022-05-14T10:50:52.068Z</time>
      </trkpt>
      <trkpt lat="41.54714" lon="19.6903">
        <ele>56.645727</ele>
        <time>2022-05-14T10:51:56.074Z</time>
      </trkpt>
      <trkpt lat="41.54621" lon="19.68786">
        <ele>60.747942</ele>
        <time>2022-05-14T10:53:04.062Z</time>
      </trkpt>
      <trkpt lat="41.54756" lon="19.68596">
        <ele>64.071135</ele>
        <time>2022-05-14T10:54:05.067Z</time>
      </trkpt>
      <trkpt lat="41.54771" lon="19.68289">
        <ele>60.376537</ele>
        <time>2022-05-14T10:54:47.081Z</time>
      </trkpt>
      <trkpt lat="41.54756" lon="19.68041">
        <ele>57.026884</ele>
        <time>2022-05-14T10:55:38.078Z</time>
      </trkpt>
      <trkpt lat="41.54877" lon="19.67834">
        <ele>57.996892</ele>
        <time>2022-05-14T10:56:41.064Z</time>
      </trkpt>
      <trkpt lat="41.55067" lon="19.67768">
        <ele>64.035218</ele>
        <time>2022-05-14T10:57:43.102Z</time>
      </trkpt>
      <trkpt lat="41.5528" lon="19.67721">
        <ele>61.69591</ele>
        <time>2022-05-14T10:58:51.070Z</time>
      </trkpt>
      <trkpt lat="41.55483" lon="19.67718">
        <ele>61.528562</ele>
        <time>2022-05-14T10:59:52.053Z</time>
      </trkpt>
      <trkpt lat="41.55677" lon="19.67713">
        <ele>65.360189</ele>
        <time>2022-05-14T11:00:52.107Z</time>
      </trkpt>
      <trkpt lat="41.55854" lon="19.67864">
        <ele>66.0952</ele>
        <time>2022-05-14T11:01:52.080Z</time>
      </trkpt>
      <trkpt lat="41.55907" lon="19.68129">
        <ele>68.395702</ele>
        <time>2022-05-14T11:02:56.101Z</time>
      </trkpt>
      <trkpt lat="41.55915" lon="19.68387">
        <ele>71.046794</ele>
        <time>2022-05-14T11:03:56.086Z</time>
      </trkpt>
      <trkpt lat="41.55954" lon="19.68639">
        <ele>72.87109</ele>
        <time>2022-05-14T11:04:56.068Z</time>
      </trkpt>
      <trkpt lat="41.55973" lon="19.68906">
        <ele>75.580114</ele>
        <time>2022-05-14T11:06:02.090Z</time>
      </trkpt>
      <trkpt lat="41.56032" lon="19.69161">
        <ele>80.083375</ele>
        <time>2022-05-14T11:07:16.081Z</time>
      </trkpt>
      <trkpt lat="41.56237" lon="19.69204">
        <ele>79.785788</ele>
        <time>2022-05-14T11:08:18.091Z</time>
      </trkpt>
      <trkpt lat="41.56433" lon="19.69259">
        <ele>78.835774</ele>
        <time>2022-05-14T11:09:02.080Z</time>
      </trkpt>
      <trkpt lat="41.56652" lon="19.69279">
        <ele>79.231945</ele>
        <time>2022-05-14T11:09:57.087Z</time>
      </trkpt>
      <trkpt lat="41.56856" lon="19.69372">
        <ele>80.774789</ele>
        <time>2022-05-14T11:10:54.085Z</time>
      </trkpt>
      <trkpt lat="41.57056" lon="19.69368">
        <ele>78.525476</ele>
        <time>2022-05-14T11:11:46.108Z</time>
      </trkpt>
      <trkpt lat="41.57281" lon="19.69258">
        <ele>73.022276</ele>
        <time>2022-05-14T11:12:26.099Z</time>
      </trkpt>
      <trkpt lat="41.57471" lon="19.69205">
        <ele>66.273679</ele>
        <time>2022-05-14T11:18:20.076Z</time>
      </trkpt>
      <trkpt lat="41.57702" lon="19.69256">
        <ele>66.74128</ele>
        <time>2022-05-14T11:19:21.079Z</time>
      </trkpt>
      <trkpt lat="41.57914" lon="19.69224">
        <ele>71.922165</ele>
        <time>2022-05-14T11:20:13.097Z</time>
      </trkpt>
      <trkpt lat="41.5813" lon="19.6919">
        <ele>64.647718</ele>
        <time>2022-05-14T11:21:09.086Z</time>
      </trkpt>
      <trkpt lat="41.58332" lon="19.69271">
        <ele>58.10695</ele>
        <time>2022-05-14T11:21:58.097Z</time>
      </trkpt>
      <trkpt lat="41.58537" lon="19.69308">
        <ele>58.718687</ele>
        <time>2022-05-14T11:22:53.086Z</time>
      </trkpt>
      <trkpt lat="41.58741" lon="19.69295">
        <ele>62.384401</ele>
        <time>2022-05-14T11:24:07.079Z</time>
      </trkpt>
      <trkpt lat="41.58887" lon="19.69516">
        <ele>56.481198</ele>
        <time>2022-05-14T11:25:08.094Z</time>
      </trkpt>
      <trkpt lat="41.58898" lon="19.69813">
        <ele>54.420244</ele>
        <time>2022-05-14T11:26:14.075Z</time>
      </trkpt>
      <trkpt lat="41.5902" lon="19.70029">
        <ele>50.76223</ele>
        <time>2022-05-14T11:27:08.079Z</time>
      </trkpt>
      <trkpt lat="41.5923" lon="19.69905">
        <ele>51.207308</ele>
        <time>2022-05-14T11:28:08.072Z</time>
      </trkpt>
      <trkpt lat="41.5947" lon="19.69866">
        <ele>48.922467</ele>
        <time>2022-05-14T11:29:11.076Z</time>
      </trkpt>
      <trkpt lat="41.59703" lon="19.69907">
        <ele>48.333847</ele>
        <time>2022-05-14T11:30:11.107Z</time>
      </trkpt>
      <trkpt lat="41.59907" lon="19.69951">
        <ele>49.965039</ele>
        <time>2022-05-14T11:31:12.070Z</time>
      </trkpt>
      <trkpt lat="41.60071" lon="19.70062">
        <ele>55.842324</ele>
        <time>2022-05-14T11:32:11.077Z</time>
      </trkpt>
      <trkpt lat="41.60173" lon="19.7036">
        <ele>58.632266</ele>
        <time>2022-05-14T11:33:11.077Z</time>
      </trkpt>
      <trkpt lat="41.60247" lon="19.70623">
        <ele>59.504236</ele>
        <time>2022-05-14T11:34:10.123Z</time>
      </trkpt>
      <trkpt lat="41.60419" lon="19.7078">
        <ele>56.209115</ele>
        <time>2022-05-14T11:34:56.081Z</time>
      </trkpt>
      <trkpt lat="41.60548" lon="19.70995">
        <ele>56.065615</ele>
        <time>2022-05-14T11:35:41.080Z</time>
      </trkpt>
      <trkpt lat="41.60702" lon="19.71218">
        <ele>59.855859</ele>
        <time>2022-05-14T11:36:44.078Z</time>
      </trkpt>
      <trkpt lat="41.60894" lon="19.71353">
        <ele>55.952215</ele>
        <time>2022-05-14T11:37:33.092Z</time>
      </trkpt>
      <trkpt lat="41.61102" lon="19.71293">
        <ele>50.720731</ele>
        <time>2022-05-14T11:38:20.078Z</time>
      </trkpt>
      <trkpt lat="41.6129" lon="19.71133">
        <ele>49.634887</ele>
        <time>2022-05-14T11:39:16.081Z</time>
      </trkpt>
      <trkpt lat="41.61508" lon="19.71172">
        <ele>50.584458</ele>
        <time>2022-05-14T11:40:05.079Z</time>
      </trkpt>
      <trkpt lat="41.61736" lon="19.71145">
        <ele>49.744962</ele>
        <time>2022-05-14T11:41:00.080Z</time>
      </trkpt>
      <trkpt lat="41.61921" lon="19.71076">
        <ele>50.903202</ele>
        <time>2022-05-14T11:41:46.086Z</time>
      </trkpt>
      <trkpt lat="41.62124" lon="19.70934">
        <ele>53.020651</ele>
        <time>2022-05-14T11:42:52.117Z</time>
      </trkpt>
      <trkpt lat="41.62318" lon="19.70854">
        <ele>55.081184</ele>
        <time>2022-05-14T11:44:00.113Z</time>
      </trkpt>
      <trkpt lat="41.62538" lon="19.70902">
        <ele>58.300718</ele>
        <time>2022-05-14T11:45:00.087Z</time>
      </trkpt>
      <trkpt lat="41.62726" lon="19.71001">
        <ele>63.026826</ele>
        <time>2022-05-14T11:46:04.073Z</time>
      </trkpt>
      <trkpt lat="41.62936" lon="19.71106">
        <ele>69.413864</ele>
        <time>2022-05-14T11:47:14.094Z</time>
      </trkpt>
      <trkpt lat="41.63165" lon="19.71118">
        <ele>66.723812</ele>
        <time>2022-05-14T11:48:13.133Z</time>
      </trkpt>
      <trkpt lat="41.63374" lon="19.71096">
        <ele>70.574004</ele>
        <time>2022-05-14T11:49:15.097Z</time>
      </trkpt>
      <trkpt lat="41.6359" lon="19.71144">
        <ele>78.316646</ele>
        <time>2022-05-14T11:50:22.078Z</time>
      </trkpt>
      <trkpt lat="41.63793" lon="19.71174">
        <ele>74.35411</ele>
        <time>2022-05-14T11:51:05.091Z</time>
      </trkpt>
      <trkpt lat="41.63962" lon="19.71355">
        <ele>74.264653</ele>
        <time>2022-05-14T11:51:50.080Z</time>
      </trkpt>
      <trkpt lat="41.64161" lon="19.71303">
        <ele>71.057816</ele>
        <time>2022-05-14T11:53:00.107Z</time>
      </trkpt>
      <trkpt lat="41.64328" lon="19.71105">
        <ele>64.46361</ele>
        <time>2022-05-14T11:54:01.096Z</time>
      </trkpt>
      <trkpt lat="41.64477" lon="19.70858">
        <ele>60.958794</ele>
        <time>2022-05-14T11:54:43.115Z</time>
      </trkpt>
      <trkpt lat="41.64677" lon="19.70734">
        <ele>62.507471</ele>
        <time>2022-05-14T11:55:50.076Z</time>
      </trkpt>
      <trkpt lat="41.64851" lon="19.70862">
        <ele>70.927198</ele>
        <time>2022-05-14T11:57:12.136Z</time>
      </trkpt>
      <trkpt lat="41.65041" lon="19.70873">
        <ele>72.329344</ele>
        <time>2022-05-14T11:58:31.100Z</time>
      </trkpt>
      <trkpt lat="41.65258" lon="19.70832">
        <ele>66.66781</ele>
        <time>2022-05-14T11:59:13.088Z</time>
      </trkpt>
      <trkpt lat="41.65509" lon="19.70687">
        <ele>57.966506</ele>
        <time>2022-05-14T11:59:50.086Z</time>
      </trkpt>
      <trkpt lat="41.65738" lon="19.70497">
        <ele>52.129316</ele>
        <time>2022-05-14T12:00:29.116Z</time>
      </trkpt>
      <trkpt lat="41.65936" lon="19.70606">
        <ele>52.078422</ele>
        <time>2022-05-14T12:01:21.104Z</time>
      </trkpt>
      <trkpt lat="41.66122" lon="19.70774">
        <ele>55.349751</ele>
        <time>2022-05-14T12:02:21.074Z</time>
      </trkpt>
      <trkpt lat="41.66326" lon="19.7086">
        <ele>59.399489</ele>
        <time>2022-05-14T12:03:33.093Z</time>
      </trkpt>
      <trkpt lat="41.66555" lon="19.70839">
        <ele>57.673804</ele>
        <time>2022-05-14T12:04:35.071Z</time>
      </trkpt>
      <trkpt lat="41.66756" lon="19.70866">
        <ele>60.993149</ele>
        <time>2022-05-14T12:05:28.115Z</time>
      </trkpt>
      <trkpt lat="41.66966" lon="19.70837">
        <ele>61.122433</ele>
        <time>2022-05-14T12:06:12.112Z</time>
      </trkpt>
      <trkpt lat="41.67217" lon="19.70797">
        <ele>57.512856</ele>
        <time>2022-05-14T12:06:52.099Z</time>
      </trkpt>
      <trkpt lat="41.67414" lon="19.70713">
        <ele>52.740778</ele>
        <time>2022-05-14T12:07:35.118Z</time>
      </trkpt>
      <trkpt lat="41.67603" lon="19.70825">
        <ele>55.283944</ele>
        <time>2022-05-14T12:08:22.083Z</time>
      </trkpt>
      <trkpt lat="41.6778" lon="19.71009">
        <ele>50.591445</ele>
        <time>2022-05-14T12:09:14.104Z</time>
      </trkpt>
      <trkpt lat="41.67928" lon="19.71224">
        <ele>51.386908</ele>
        <time>2022-05-14T12:10:09.093Z</time>
      </trkpt>
      <trkpt lat="41.68122" lon="19.71156">
        <ele>55.632917</ele>
        <time>2022-05-14T12:11:05.107Z</time>
      </trkpt>
      <trkpt lat="41.68286" lon="19.70968">
        <ele>59.430289</ele>
        <time>2022-05-14T12:12:02.075Z</time>
      </trkpt>
      <trkpt lat="41.68437" lon="19.70773">
        <ele>57.480083</ele>
        <time>2022-05-14T12:12:55.106Z</time>
      </trkpt>
      <trkpt lat="41.68601" lon="19.70564">
        <ele>58.099499</ele>
        <time>2022-05-14T12:14:08.084Z</time>
      </trkpt>
      <trkpt lat="41.68749" lon="19.70368">
        <ele>61.302183</ele>
        <time>2022-05-14T12:15:18.111Z</time>
      </trkpt>
      <trkpt lat="41.68896" lon="19.70177">
        <ele>59.006432</ele>
        <time>2022-05-14T12:16:20.087Z</time>
      </trkpt>
      <trkpt lat="41.69069" lon="19.69955">
        <ele>57.480515</ele>
        <time>2022-05-14T12:17:20.079Z</time>
      </trkpt>
      <trkpt lat="41.69217" lon="19.69766">
        <ele>55.628932</ele>
        <time>2022-05-14T12:18:03.096Z</time>
      </trkpt>
      <trkpt lat="41.6939" lon="19.69593">
        <ele>54.328326</ele>
        <time>2022-05-14T12:18:51.091Z</time>
      </trkpt>
      <trkpt lat="41.69586" lon="19.69469">
        <ele>49.760671</ele>
        <time>2022-05-14T12:19:34.082Z</time>
      </trkpt>
      <trkpt lat="41.69804" lon="19.69364">
        <ele>53.620777</ele>
        <time>2022-05-14T12:20:33.077Z</time>
      </trkpt>
      <trkpt lat="41.70029" lon="19.69238">
        <ele>56.483722</ele>
        <time>2022-05-14T12:21:25.074Z</time>
      </trkpt>
      <trkpt lat="41.7021" lon="19.69081">
        <ele>61.029633</ele>
        <time>2022-05-14T12:22:05.084Z</time>
      </trkpt>
      <trkpt lat="41.70389" lon="19.68923">
        <ele>52.238315</ele>
        <time>2022-05-14T12:22:45.073Z</time>
      </trkpt>
      <trkpt lat="41.70599" lon="19.68848">
        <ele>51.509321</ele>
        <time>2022-05-14T12:23:27.097Z</time>
      </trkpt>
      <trkpt lat="41.70802" lon="19.68777">
        <ele>50.193373</ele>
        <time>2022-05-14T12:24:16.093Z</time>
      </trkpt>
      <trkpt lat="41.71019" lon="19.68704">
        <ele>49.456606</ele>
        <time>2022-05-14T12:25:08.093Z</time>
      </trkpt>
      <trkpt lat="41.71227" lon="19.68724">
        <ele>49.597434</ele>
        <time>2022-05-14T12:25:51.085Z</time>
      </trkpt>
      <trkpt lat="41.71459" lon="19.68706">
        <ele>48.837596</ele>
        <time>2022-05-14T12:26:44.101Z</time>
      </trkpt>
      <trkpt lat="41.71679" lon="19.68671">
        <ele>49.449105</ele>
        <time>2022-05-14T12:27:46.091Z</time>
      </trkpt>
      <trkpt lat="41.71902" lon="19.6871">
        <ele>54.382078</ele>
        <time>2022-05-14T12:28:40.094Z</time>
      </trkpt>
      <trkpt lat="41.72118" lon="19.68782">
        <ele>57.271505</ele>
        <time>2022-05-14T12:29:40.100Z</time>
      </trkpt>
      <trkpt lat="41.72353" lon="19.68863">
        <ele>48.553858</ele>
        <time>2022-05-14T12:30:40.099Z</time>
      </trkpt>
      <trkpt lat="41.72581" lon="19.6888">
        <ele>46.308089</ele>
        <time>2022-05-14T12:31:43.080Z</time>
      </trkpt>
      <trkpt lat="41.72802" lon="19.6885">
        <ele>48.160856</ele>
        <time>2022-05-14T12:41:15.076Z</time>
      </trkpt>
      <trkpt lat="41.73023" lon="19.68793">
        <ele>47.610131</ele>
        <time>2022-05-14T12:42:21.101Z</time>
      </trkpt>
      <trkpt lat="41.73255" lon="19.688">
        <ele>54.040077</ele>
        <time>2022-05-14T12:43:15.079Z</time>
      </trkpt>
      <trkpt lat="41.73439" lon="19.68917">
        <ele>61.625901</ele>
        <time>2022-05-14T12:44:24.095Z</time>
      </trkpt>
      <trkpt lat="41.73648" lon="19.68911">
        <ele>63.216153</ele>
        <time>2022-05-14T12:45:43.121Z</time>
      </trkpt>
      <trkpt lat="41.73895" lon="19.68831">
        <ele>59.727679</ele>
        <time>2022-05-14T12:46:32.080Z</time>
      </trkpt>
      <trkpt lat="41.74093" lon="19.68776">
        <ele>61.459786</ele>
        <time>2022-05-14T12:47:46.089Z</time>
      </trkpt>
      <trkpt lat="41.74243" lon="19.68573">
        <ele>55.266384</ele>
        <time>2022-05-14T12:48:41.095Z</time>
      </trkpt>
      <trkpt lat="41.74298" lon="19.68287">
        <ele>48.914298</ele>
        <time>2022-05-14T12:49:27.076Z</time>
      </trkpt>
      <trkpt lat="41.74438" lon="19.68048">
        <ele>48.283324</ele>
        <time>2022-05-14T12:50:23.074Z</time>
      </trkpt>
      <trkpt lat="41.74571" lon="19.67818">
        <ele>51.145348</ele>
        <time>2022-05-14T12:51:08.096Z</time>
      </trkpt>
      <trkpt lat="41.74613" lon="19.67542">
        <ele>46.46706</ele>
        <time>2022-05-14T12:51:54.070Z</time>
      </trkpt>
      <trkpt lat="41.74745" lon="19.67321">
        <ele>42.500017</ele>
        <time>2022-05-14T12:53:02.091Z</time>
      </trkpt>
      <trkpt lat="41.74986" lon="19.6716">
        <ele>32.902723</ele>
        <time>2022-05-14T12:53:44.070Z</time>
      </trkpt>
      <trkpt lat="41.75206" lon="19.6716">
        <ele>39.388851</ele>
        <time>2022-05-14T12:54:35.066Z</time>
      </trkpt>
      <trkpt lat="41.75448" lon="19.6712">
        <ele>44.861351</ele>
        <time>2022-05-14T12:55:35.077Z</time>
      </trkpt>
      <trkpt lat="41.75681" lon="19.67156">
        <ele>42.191596</ele>
        <time>2022-05-14T12:56:38.068Z</time>
      </trkpt>
      <trkpt lat="41.7588" lon="19.67199">
        <ele>49.06903</ele>
        <time>2022-05-14T12:57:39.124Z</time>
      </trkpt>
      <trkpt lat="41.76096" lon="19.6725">
        <ele>57.226906</ele>
        <time>2022-05-14T12:58:41.087Z</time>
      </trkpt>
      <trkpt lat="41.76306" lon="19.67285">
        <ele>56.515639</ele>
        <time>2022-05-14T12:59:27.086Z</time>
      </trkpt>
      <trkpt lat="41.76457" lon="19.67049">
        <ele>55.599567</ele>
        <time>2022-05-14T13:00:20.083Z</time>
      </trkpt>
      <trkpt lat="41.76631" lon="19.66866">
        <ele>51.276678</ele>
        <time>2022-05-14T13:01:17.074Z</time>
      </trkpt>
      <trkpt lat="41.76828" lon="19.66762">
        <ele>48.59479</ele>
        <time>2022-05-14T13:02:07.074Z</time>
      </trkpt>
      <trkpt lat="41.76993" lon="19.66614">
        <ele>46.872928</ele>
        <time>2022-05-14T13:02:47.098Z</time>
      </trkpt>
      <trkpt lat="41.77094" lon="19.66338">
        <ele>44.861177</ele>
        <time>2022-05-14T13:03:45.087Z</time>
      </trkpt>
      <trkpt lat="41.77156" lon="19.66096">
        <ele>38.955736</ele>
        <time>2022-05-14T13:04:28.090Z</time>
      </trkpt>
      <trkpt lat="41.77314" lon="19.65893">
        <ele>48.231459</ele>
        <time>2022-05-14T13:05:12.095Z</time>
      </trkpt>
      <trkpt lat="41.77455" lon="19.65646">
        <ele>51.820264</ele>
        <time>2022-05-14T13:06:03.062Z</time>
      </trkpt>
      <trkpt lat="41.77515" lon="19.65388">
        <ele>55.390316</ele>
        <time>2022-05-14T13:06:43.098Z</time>
      </trkpt>
      <trkpt lat="41.77525" lon="19.65105">
        <ele>64.510382</ele>
        <time>2022-05-14T13:07:23.074Z</time>
      </trkpt>
      <trkpt lat="41.77505" lon="19.64808">
        <ele>64.885446</ele>
        <time>2022-05-14T13:08:03.072Z</time>
      </trkpt>
      <trkpt lat="41.77482" lon="19.64492">
        <ele>63.444511</ele>
        <time>2022-05-14T13:09:14.101Z</time>
      </trkpt>
      <trkpt lat="41.7753" lon="19.64282">
        <ele>60.208412</ele>
        <time>2022-05-14T13:10:19.080Z</time>
      </trkpt>
      <trkpt lat="41.77562" lon="19.64259">
        <ele>60.208412</ele>
        <time>2022-05-14T13:12:48.432Z</time>
      </trkpt>
    </trkseg>
  </trk>
</gpx>